createdAt,value
2023-03-16T00:00:21.647Z,4.28
2023-03-16T00:02:48.985Z,4.43
2023-03-16T00:05:16.189Z,4.93
2023-03-16T00:07:43.909Z,4.45
2023-03-16T00:10:13.435Z,5.47
2023-03-16T00:12:43.698Z,4.50
2023-03-16T00:15:13.220Z,4.93
2023-03-16T00:17:40.616Z,5.00
2023-03-16T00:20:08.381Z,4.82
2023-03-16T00:22:35.702Z,4.93
2023-03-16T00:25:03.547Z,4.70
2023-03-16T00:27:30.998Z,5.63
2023-03-16T00:29:58.353Z,5.10
2023-03-16T00:32:34.568Z,4.68
2023-03-16T00:35:04.016Z,4.95
2023-03-16T00:37:33.029Z,5.50
2023-03-16T00:40:01.346Z,4.57
2023-03-16T00:42:30.850Z,5.35
2023-03-16T00:45:00.146Z,6.35
2023-03-16T00:47:31.215Z,5.00
2023-03-16T00:49:59.176Z,5.32
2023-03-16T00:52:27.798Z,4.53
2023-03-16T00:54:56.202Z,6.07
2023-03-16T00:57:25.881Z,5.75
2023-03-16T00:59:53.492Z,4.65
2023-03-16T01:02:24.818Z,5.13
2023-03-16T01:04:54.909Z,4.60
2023-03-16T01:07:23.359Z,5.18
2023-03-16T01:09:51.446Z,5.00
2023-03-16T01:12:20.060Z,5.05
2023-03-16T01:14:47.676Z,4.53
2023-03-16T01:17:17.453Z,6.38
2023-03-16T01:19:46.004Z,5.05
2023-03-16T01:22:14.116Z,4.82
2023-03-16T01:24:42.998Z,5.22
2023-03-16T01:27:10.526Z,4.38
2023-03-16T01:29:39.078Z,5.15
2023-03-16T01:32:07.507Z,5.93
2023-03-16T01:34:35.254Z,5.38
2023-03-16T01:37:03.950Z,5.85
2023-03-16T01:39:47.212Z,5.53
2023-03-16T01:42:15.410Z,6.00
2023-03-16T01:44:58.657Z,5.57
2023-03-16T01:47:38.114Z,5.50
2023-03-16T01:50:07.770Z,6.38
2023-03-16T01:52:39.251Z,6.68
2023-03-16T01:55:09.328Z,7.50
2023-03-16T01:57:42.781Z,7.70
2023-03-16T02:00:20.124Z,7.30
2023-03-16T02:03:19.828Z,8.60
2023-03-16T02:06:08.230Z,9.80
2023-03-16T02:08:40.364Z,11.00
2023-03-16T02:11:09.944Z,11.35
2023-03-16T02:13:47.177Z,12.05
2023-03-16T02:16:19.655Z,10.13
2023-03-16T02:18:51.022Z,10.95
2023-03-16T02:21:55.469Z,13.48
2023-03-16T02:24:22.968Z,13.88
2023-03-16T02:27:08.193Z,14.93
2023-03-16T02:30:08.365Z,15.48
2023-03-16T02:32:46.185Z,16.08
2023-03-16T02:35:14.098Z,15.77
2023-03-16T02:37:42.057Z,16.48
2023-03-16T02:40:36.396Z,17.35
2023-03-16T02:43:11.372Z,17.30
2023-03-16T02:45:51.493Z,17.27
2023-03-16T02:48:32.539Z,18.55
2023-03-16T02:51:00.446Z,19.20
2023-03-16T02:53:28.195Z,20.25
2023-03-16T02:55:57.440Z,20.52
2023-03-16T02:58:24.949Z,21.10
2023-03-16T03:00:52.133Z,21.13
2023-03-16T03:03:19.385Z,21.73
2023-03-16T03:05:46.996Z,22.77
2023-03-16T03:08:14.598Z,22.65
2023-03-16T03:10:42.376Z,23.08
2023-03-16T03:13:10.276Z,23.13
2023-03-16T03:15:38.087Z,22.10
2023-03-16T03:18:09.230Z,22.05
2023-03-16T03:20:36.660Z,22.35
2023-03-16T03:23:04.389Z,22.30
2023-03-16T03:25:35.020Z,22.33
2023-03-16T03:28:05.905Z,21.42
2023-03-16T03:30:33.575Z,20.30
2023-03-16T03:33:01.930Z,20.33
2023-03-16T03:35:30.118Z,20.85
2023-03-16T03:37:57.560Z,19.70
2023-03-16T03:40:26.572Z,19.73
2023-03-16T03:42:58.525Z,19.65
2023-03-16T03:45:26.221Z,20.15
2023-03-16T03:47:55.456Z,19.00
2023-03-16T03:50:24.663Z,18.75
2023-03-16T03:52:59.946Z,20.13
2023-03-16T03:55:32.996Z,18.45
2023-03-16T03:58:01.311Z,19.35
2023-03-16T04:00:29.438Z,18.48
2023-03-16T04:02:57.535Z,19.52
2023-03-16T04:07:59.672Z,18.10
2023-03-16T04:10:30.273Z,17.17
2023-03-16T04:12:59.945Z,18.08
2023-03-16T04:15:33.121Z,19.00
2023-03-16T04:18:22.464Z,18.23
2023-03-16T04:20:50.017Z,18.83
2023-03-16T04:23:21.519Z,18.35
2023-03-16T04:25:50.941Z,17.80
2023-03-16T04:28:21.082Z,18.48
2023-03-16T04:30:55.725Z,18.95
2023-03-16T04:33:29.392Z,18.00
2023-03-16T04:35:57.518Z,19.15
2023-03-16T04:38:25.665Z,19.80
2023-03-16T04:41:00.122Z,19.55
2023-03-16T04:43:34.604Z,18.40
2023-03-16T04:46:19.263Z,18.73
2023-03-16T04:48:46.992Z,18.98
2023-03-16T04:51:14.281Z,19.65
2023-03-16T04:53:48.775Z,18.27
2023-03-16T04:56:24.262Z,18.60
2023-03-16T04:58:57.298Z,19.58
2023-03-16T05:01:28.397Z,19.48
2023-03-16T05:03:59.890Z,18.85
2023-03-16T05:06:29.613Z,19.25
2023-03-16T05:09:01.735Z,19.63
2023-03-16T05:11:30.147Z,20.45
2023-03-16T05:14:00.683Z,20.33
2023-03-16T05:16:29.617Z,19.85
2023-03-16T05:19:02.498Z,20.23
2023-03-16T05:21:35.737Z,21.02
2023-03-16T05:24:06.243Z,21.23
2023-03-16T05:26:34.280Z,20.25
2023-03-16T05:29:02.588Z,20.67
2023-03-16T05:31:34.463Z,22.38
2023-03-16T05:34:04.851Z,22.17
2023-03-16T05:36:32.362Z,22.13
2023-03-16T05:39:08.663Z,21.55
2023-03-16T05:41:40.998Z,21.40
2023-03-16T05:44:34.623Z,20.42
2023-03-16T05:47:27.456Z,21.60
2023-03-16T05:49:57.878Z,21.20
2023-03-16T05:52:35.666Z,20.88
2023-03-16T05:55:11.704Z,20.80
2023-03-16T05:57:39.917Z,20.88
2023-03-16T06:00:13.410Z,21.73
2023-03-16T06:02:48.629Z,21.48
2023-03-16T06:05:18.141Z,20.83
2023-03-16T06:07:46.886Z,20.58
2023-03-16T06:10:15.258Z,21.88
2023-03-16T06:12:42.886Z,21.58
2023-03-16T06:15:11.478Z,22.30
2023-03-16T06:17:40.268Z,23.20
2023-03-16T06:20:13.205Z,23.63
2023-03-16T06:22:43.500Z,23.38
2023-03-16T06:25:13.897Z,22.80
2023-03-16T06:27:43.708Z,21.98
2023-03-16T06:30:16.023Z,21.08
2023-03-16T06:32:46.064Z,23.55
2023-03-16T06:35:14.849Z,21.67
2023-03-16T06:37:48.645Z,21.98
2023-03-16T06:40:38.840Z,21.98
2023-03-16T06:43:06.646Z,23.10
2023-03-16T06:45:33.983Z,22.75
2023-03-16T06:48:01.754Z,21.15
2023-03-16T06:50:29.623Z,22.30
2023-03-16T06:52:58.484Z,22.83
2023-03-16T06:55:26.080Z,21.75
2023-03-16T06:57:55.068Z,21.95
2023-03-16T07:00:22.734Z,23.75
2023-03-16T07:02:51.329Z,21.85
2023-03-16T07:05:19.195Z,21.90
2023-03-16T07:07:48.072Z,22.55
2023-03-16T07:10:17.779Z,22.63
2023-03-16T07:12:45.218Z,22.27
2023-03-16T07:15:13.599Z,20.80
2023-03-16T07:17:43.316Z,22.23
2023-03-16T07:20:13.005Z,21.88
2023-03-16T07:22:41.978Z,20.60
2023-03-16T07:25:12.038Z,20.73
2023-03-16T07:27:47.066Z,21.17
2023-03-16T07:30:20.114Z,21.63
2023-03-16T07:32:50.029Z,22.55
2023-03-16T07:35:20.454Z,20.85
2023-03-16T07:37:48.439Z,22.13
2023-03-16T07:40:15.969Z,22.73
2023-03-16T07:42:44.529Z,21.00
2023-03-16T07:45:18.231Z,21.45
2023-03-16T07:47:46.818Z,20.92
2023-03-16T07:50:34.214Z,19.17
2023-03-16T07:53:01.663Z,19.33
2023-03-16T07:55:29.184Z,20.13
2023-03-16T07:57:56.392Z,18.67
2023-03-16T08:00:30.821Z,20.05
2023-03-16T08:02:58.559Z,19.75
2023-03-16T08:05:27.794Z,18.42
2023-03-16T08:08:02.462Z,20.67
2023-03-16T08:10:32.680Z,19.83
2023-03-16T08:13:06.506Z,19.98
2023-03-16T08:15:35.731Z,20.33
2023-03-16T08:18:26.733Z,20.58
2023-03-16T08:20:55.017Z,18.90
2023-03-16T08:23:24.393Z,17.08
2023-03-16T08:25:57.086Z,16.45
2023-03-16T08:28:26.424Z,16.45
2023-03-16T08:30:56.608Z,16.48
2023-03-16T08:33:36.424Z,15.13
2023-03-16T08:36:09.481Z,13.60
2023-03-16T08:38:36.722Z,13.75
2023-03-16T08:41:09.040Z,12.10
2023-03-16T08:43:37.670Z,12.93
2023-03-16T08:46:06.886Z,13.05
2023-03-16T08:48:45.449Z,12.20
2023-03-16T08:51:12.772Z,13.10
2023-03-16T08:53:40.595Z,12.43
2023-03-16T08:56:10.766Z,12.43
2023-03-16T08:58:42.303Z,11.23
2023-03-16T09:01:10.062Z,11.10
2023-03-16T09:03:37.286Z,10.85
2023-03-16T09:06:10.351Z,10.57
2023-03-16T09:08:39.356Z,11.95
2023-03-16T09:11:12.923Z,11.50
2023-03-16T09:13:41.270Z,12.30
2023-03-16T09:16:09.883Z,11.52
2023-03-16T09:18:37.336Z,11.25
2023-03-16T09:21:07.383Z,11.60
2023-03-16T09:23:35.042Z,13.88
2023-03-16T09:26:05.636Z,12.07
2023-03-16T09:28:35.032Z,11.18
2023-03-16T09:31:03.587Z,13.68
2023-03-16T09:33:32.250Z,13.77
2023-03-16T09:36:00.150Z,12.88
2023-03-16T09:38:29.296Z,15.52
2023-03-16T09:41:25.842Z,14.70
2023-03-16T09:44:09.391Z,14.00
2023-03-16T09:46:46.540Z,14.40
2023-03-16T09:49:19.265Z,14.13
2023-03-16T09:52:00.532Z,15.05
2023-03-16T09:54:41.101Z,13.73
2023-03-16T09:57:38.286Z,14.55
2023-03-16T10:00:20.141Z,15.00
2023-03-16T10:03:11.442Z,12.35
2023-03-16T10:05:39.741Z,11.38
2023-03-16T10:08:13.014Z,11.68
2023-03-16T10:10:58.856Z,12.65
2023-03-16T10:13:44.270Z,12.82
2023-03-16T10:16:35.112Z,12.90
2023-03-16T10:19:11.030Z,13.00
2023-03-16T10:21:41.493Z,13.05
2023-03-16T10:24:42.792Z,13.40
2023-03-16T10:27:20.932Z,12.23
2023-03-16T10:29:48.776Z,12.40
2023-03-16T10:32:19.696Z,12.05
2023-03-16T10:35:22.497Z,11.48
2023-03-16T10:37:49.772Z,11.68
2023-03-16T10:40:20.451Z,11.20
2023-03-16T10:42:48.251Z,11.18
2023-03-16T10:45:43.292Z,10.68
2023-03-16T10:48:19.758Z,10.65
2023-03-16T10:50:54.428Z,10.50
2023-03-16T10:53:26.736Z,9.52
2023-03-16T10:56:12.042Z,9.68
2023-03-16T10:58:43.777Z,9.13
2023-03-16T11:01:18.063Z,9.00
2023-03-16T11:03:51.449Z,8.77
2023-03-16T11:06:24.961Z,9.13
2023-03-16T11:08:54.105Z,9.50
2023-03-16T11:11:26.230Z,9.52
2023-03-16T11:13:59.835Z,9.57
2023-03-16T11:16:52.174Z,10.38
2023-03-16T11:19:27.361Z,10.50
2023-03-16T11:22:02.293Z,10.88
2023-03-16T11:24:48.010Z,10.25
2023-03-16T11:28:13.873Z,10.98
2023-03-16T11:30:56.594Z,10.68
2023-03-16T11:33:27.854Z,10.30
2023-03-16T11:36:36.030Z,10.35
2023-03-16T11:39:13.011Z,10.90
2023-03-16T11:41:58.671Z,9.85
2023-03-16T11:44:37.985Z,10.85
2023-03-16T11:47:23.746Z,10.85
2023-03-16T11:49:57.589Z,9.60
2023-03-16T11:52:59.124Z,11.02
2023-03-16T11:55:37.638Z,10.27
2023-03-16T11:58:37.740Z,10.85
2023-03-16T12:01:27.606Z,9.32
2023-03-16T12:04:20.772Z,9.23
2023-03-16T12:07:38.135Z,10.38
2023-03-16T12:10:20.561Z,9.98
2023-03-16T12:13:03.424Z,10.65
2023-03-16T12:15:49.085Z,10.88
2023-03-16T12:18:30.646Z,11.70
2023-03-16T12:21:03.474Z,10.93
2023-03-16T12:23:39.533Z,10.15
2023-03-16T12:26:09.058Z,12.77
2023-03-16T12:28:37.575Z,13.10
2023-03-16T12:31:28.640Z,11.38
2023-03-16T12:34:14.361Z,11.32
2023-03-16T12:36:49.396Z,12.10
2023-03-16T12:39:38.560Z,11.32
2023-03-16T12:42:25.211Z,11.23
2023-03-16T12:45:02.595Z,10.93
2023-03-16T12:47:44.250Z,11.00
2023-03-16T12:50:15.488Z,10.13
2023-03-16T12:52:47.766Z,10.00
2023-03-16T12:55:21.269Z,10.55
2023-03-16T12:57:51.879Z,10.43
2023-03-16T13:00:19.899Z,9.70
2023-03-16T13:02:58.292Z,10.77
2023-03-16T13:05:32.457Z,10.30
2023-03-16T13:08:16.249Z,10.27
2023-03-16T13:11:11.830Z,10.80
2023-03-16T13:14:03.847Z,10.80
2023-03-16T13:16:33.989Z,10.23
2023-03-16T13:19:01.473Z,10.13
2023-03-16T13:21:41.364Z,11.13
2023-03-16T13:24:27.093Z,9.82
2023-03-16T13:27:00.358Z,9.93
2023-03-16T13:29:30.401Z,10.02
2023-03-16T13:32:03.267Z,9.48
2023-03-16T13:34:35.424Z,9.55
2023-03-16T13:37:03.416Z,9.93
2023-03-16T13:39:32.250Z,10.27
2023-03-16T13:42:04.860Z,10.40
2023-03-16T13:44:33.254Z,8.63
2023-03-16T13:47:07.671Z,10.18
2023-03-16T13:50:03.514Z,10.45
2023-03-16T13:52:34.380Z,10.30
2023-03-16T13:55:06.813Z,9.15
2023-03-16T13:57:40.773Z,8.93
2023-03-16T14:00:15.855Z,9.90
2023-03-16T14:02:44.110Z,11.10
2023-03-16T14:05:13.730Z,12.00
2023-03-16T14:07:41.185Z,12.25
2023-03-16T14:10:14.798Z,12.80
2023-03-16T14:12:52.203Z,12.93
2023-03-16T14:15:22.204Z,11.18
2023-03-16T14:17:49.374Z,10.73
2023-03-16T14:20:28.727Z,12.40
2023-03-16T14:22:58.553Z,10.65
2023-03-16T14:25:28.298Z,13.13
2023-03-16T14:28:01.805Z,12.93
2023-03-16T14:30:31.011Z,12.45
2023-03-16T14:33:01.717Z,12.60
2023-03-16T14:35:30.796Z,13.90
2023-03-16T14:38:22.766Z,14.57
2023-03-16T14:40:56.319Z,14.43
2023-03-16T14:43:36.294Z,13.48
2023-03-16T14:46:06.313Z,14.82
2023-03-16T14:48:35.999Z,12.85
2023-03-16T14:51:04.524Z,13.57
2023-03-16T14:53:31.933Z,13.38
2023-03-16T14:55:59.968Z,12.90
2023-03-16T14:58:27.206Z,13.40
2023-03-16T15:00:55.179Z,12.63
2023-03-16T15:03:33.960Z,12.52
2023-03-16T15:06:03.019Z,13.77
2023-03-16T15:08:34.222Z,12.98
2023-03-16T15:11:06.133Z,11.50
2023-03-16T15:13:53.429Z,12.60
2023-03-16T15:16:22.225Z,11.93
2023-03-16T15:18:49.845Z,12.32
2023-03-16T15:21:20.910Z,12.65
2023-03-16T15:23:48.786Z,10.73
2023-03-16T15:26:24.909Z,12.93
2023-03-16T15:28:53.492Z,12.98
2023-03-16T15:31:21.197Z,12.43
2023-03-16T15:33:48.490Z,12.48
2023-03-16T15:36:21.344Z,11.60
2023-03-16T15:38:54.560Z,12.50
2023-03-16T15:41:23.352Z,11.77
2023-03-16T15:43:52.878Z,13.10
2023-03-16T15:46:21.298Z,12.55
2023-03-16T15:48:48.532Z,11.68
2023-03-16T15:51:36.403Z,12.45
2023-03-16T15:54:06.234Z,11.77
2023-03-16T15:56:50.958Z,12.60
2023-03-16T15:59:22.364Z,11.95
2023-03-16T16:01:51.041Z,11.35
2023-03-16T16:04:21.081Z,11.77
2023-03-16T16:06:49.792Z,12.02
2023-03-16T16:09:17.432Z,11.80
2023-03-16T16:11:48.251Z,11.63
2023-03-16T16:14:17.487Z,11.90
2023-03-16T16:16:48.412Z,11.35
2023-03-16T16:19:17.383Z,10.93
2023-03-16T16:21:44.991Z,12.52
2023-03-16T16:24:12.285Z,12.00
2023-03-16T16:26:51.942Z,11.55
2023-03-16T16:29:23.129Z,10.32
2023-03-16T16:31:52.204Z,11.68
2023-03-16T16:34:24.769Z,12.27
2023-03-16T16:36:56.315Z,12.55
2023-03-16T16:39:23.728Z,10.95
2023-03-16T16:41:54.669Z,12.38
2023-03-16T16:44:38.122Z,12.27
2023-03-16T16:47:21.272Z,12.20
2023-03-16T16:49:49.848Z,11.63
2023-03-16T16:52:30.606Z,11.90
2023-03-16T16:55:00.037Z,12.40
2023-03-16T16:57:30.344Z,11.98
2023-03-16T17:00:02.745Z,10.25
2023-03-16T17:02:48.603Z,12.07
2023-03-16T17:05:30.185Z,12.55
2023-03-16T17:08:03.553Z,13.02
2023-03-16T17:10:40.782Z,13.07
2023-03-16T17:13:29.856Z,13.57
2023-03-16T17:15:57.186Z,13.63
2023-03-16T17:18:25.182Z,15.40
2023-03-16T17:20:53.524Z,15.15
2023-03-16T17:23:31.510Z,16.38
2023-03-16T17:26:03.167Z,15.05
2023-03-16T17:28:36.342Z,15.93
2023-03-16T17:31:04.497Z,15.88
2023-03-16T17:33:34.124Z,16.52
2023-03-16T17:36:02.673Z,15.95
2023-03-16T17:38:31.371Z,15.48
2023-03-16T17:40:58.699Z,16.17
2023-03-16T17:43:25.963Z,15.73
2023-03-16T17:45:53.457Z,16.55
2023-03-16T17:48:24.273Z,16.67
2023-03-16T17:50:51.764Z,16.13
2023-03-16T17:53:21.881Z,16.08
2023-03-16T17:55:49.364Z,16.85
2023-03-16T17:58:30.305Z,18.05
2023-03-16T18:00:59.885Z,16.77
2023-03-16T18:03:30.544Z,17.63
2023-03-16T18:06:05.011Z,17.30
2023-03-16T18:08:36.740Z,18.15
2023-03-16T18:11:08.276Z,18.80
2023-03-16T18:13:39.595Z,19.77
2023-03-16T18:16:08.295Z,17.90
2023-03-16T18:18:42.941Z,17.67
2023-03-16T18:21:20.243Z,17.77
2023-03-16T18:23:48.147Z,19.55
2023-03-16T18:26:16.532Z,18.73
2023-03-16T18:28:45.906Z,17.88
2023-03-16T18:31:26.763Z,17.98
2023-03-16T18:33:58.330Z,18.70
2023-03-16T18:36:37.834Z,17.48
2023-03-16T18:39:08.065Z,17.10
2023-03-16T18:41:36.436Z,17.08
2023-03-16T18:44:27.281Z,16.50
2023-03-16T18:47:01.316Z,16.60
2023-03-16T18:49:34.165Z,16.02
2023-03-16T18:52:02.213Z,17.48
2023-03-16T18:54:35.242Z,17.55
2023-03-16T18:57:16.630Z,17.15
2023-03-16T18:59:43.836Z,17.27
2023-03-16T19:02:29.864Z,17.50
2023-03-16T19:05:01.605Z,17.92
2023-03-16T19:07:36.938Z,16.35
2023-03-16T19:10:30.320Z,17.73
2023-03-16T19:13:01.520Z,17.10
2023-03-16T19:15:32.725Z,17.10
2023-03-16T19:18:03.395Z,17.92
2023-03-16T19:20:35.208Z,17.85
2023-03-16T19:23:19.071Z,18.85
2023-03-16T19:25:47.224Z,19.98
2023-03-16T19:28:19.869Z,19.40
2023-03-16T19:30:47.846Z,18.35
2023-03-16T19:33:22.800Z,17.55
2023-03-16T19:38:23.986Z,18.92
2023-03-16T19:41:00.379Z,20.27
2023-03-16T19:43:29.018Z,19.88
2023-03-16T19:45:57.868Z,20.02
2023-03-16T19:48:33.318Z,19.90
2023-03-16T19:51:02.023Z,20.15
2023-03-16T19:53:29.193Z,19.90
2023-03-16T19:55:56.564Z,20.27
2023-03-16T19:58:29.676Z,19.50
2023-03-16T20:00:58.337Z,20.55
2023-03-16T20:03:25.966Z,20.33
2023-03-16T20:05:53.741Z,20.40
2023-03-16T20:08:26.683Z,20.35
2023-03-16T20:11:02.656Z,22.35
2023-03-16T20:13:31.578Z,22.65
2023-03-16T20:15:59.572Z,22.67
2023-03-16T20:18:29.617Z,22.42
2023-03-16T20:20:57.738Z,21.30
2023-03-16T20:23:28.189Z,22.30
2023-03-16T20:26:02.840Z,22.00
2023-03-16T20:28:36.456Z,23.35
2023-03-16T20:31:08.381Z,22.48
2023-03-16T20:33:36.258Z,22.63
2023-03-16T20:36:03.711Z,22.85
2023-03-16T20:38:31.853Z,22.80
2023-03-16T20:40:59.035Z,23.80
2023-03-16T20:43:32.344Z,22.75
2023-03-16T20:46:01.997Z,23.05
2023-03-16T20:48:29.487Z,24.40
2023-03-16T20:51:00.184Z,25.00
2023-03-16T20:53:27.730Z,23.38
2023-03-16T20:55:56.642Z,24.45
2023-03-16T20:58:29.253Z,25.00
2023-03-16T21:01:01.452Z,25.40
2023-03-16T21:03:30.739Z,24.83
2023-03-16T21:06:00.001Z,25.48
2023-03-16T21:08:27.508Z,24.25
2023-03-16T21:10:56.958Z,23.33
2023-03-16T21:13:27.961Z,23.92
2023-03-16T21:15:56.523Z,23.92
2023-03-16T21:18:24.032Z,23.58
2023-03-16T21:20:51.933Z,21.58
2023-03-16T21:23:21.312Z,22.50
2023-03-16T21:25:53.059Z,23.77
2023-03-16T21:28:22.980Z,23.60
2023-03-16T21:30:53.049Z,22.88
2023-03-16T21:33:30.208Z,23.27
2023-03-16T21:35:59.088Z,24.02
2023-03-16T21:38:28.948Z,24.10
2023-03-16T21:40:56.952Z,25.02
2023-03-16T21:43:26.022Z,23.33
2023-03-16T21:45:55.292Z,23.90
2023-03-16T21:48:26.220Z,24.55
2023-03-16T21:50:54.568Z,24.98
2023-03-16T21:53:27.303Z,24.58
2023-03-16T21:55:55.912Z,25.10
2023-03-16T21:58:24.098Z,24.42
2023-03-16T22:00:52.874Z,24.88
2023-03-16T22:03:20.130Z,23.80
2023-03-16T22:05:48.003Z,24.70
2023-03-16T22:08:21.665Z,25.02
2023-03-16T22:10:51.268Z,25.30
2023-03-16T22:13:19.383Z,24.52
2023-03-16T22:15:49.141Z,25.25
2023-03-16T22:18:37.287Z,26.33
2023-03-16T22:21:22.799Z,25.50
2023-03-16T22:23:50.170Z,25.98
2023-03-16T22:26:20.459Z,26.38
2023-03-16T22:28:48.447Z,25.23
2023-03-16T22:31:20.408Z,25.60
2023-03-16T22:33:48.827Z,26.30
2023-03-16T22:36:19.952Z,26.35
2023-03-16T22:38:59.795Z,26.45
2023-03-16T22:41:29.455Z,27.15
2023-03-16T22:43:59.486Z,27.77
2023-03-16T22:46:28.008Z,26.98
2023-03-16T22:48:56.160Z,28.00
2023-03-16T22:51:26.156Z,28.88
2023-03-16T22:53:56.880Z,28.30
2023-03-16T22:56:24.677Z,28.15
2023-03-16T22:58:58.133Z,28.75
2023-03-16T23:01:35.199Z,27.90
2023-03-16T23:04:02.891Z,27.67
2023-03-16T23:06:32.644Z,27.52
2023-03-16T23:09:00.435Z,29.30
2023-03-16T23:11:36.189Z,27.77
2023-03-16T23:14:03.438Z,27.65
2023-03-16T23:16:34.797Z,26.70
2023-03-16T23:19:04.363Z,28.05
2023-03-16T23:21:33.365Z,28.15
2023-03-16T23:24:04.384Z,27.08
2023-03-16T23:26:32.892Z,27.10
2023-03-16T23:29:00.490Z,27.48
2023-03-16T23:31:29.970Z,27.38
2023-03-16T23:33:57.520Z,27.40
2023-03-16T23:36:26.146Z,26.73
2023-03-16T23:38:53.673Z,26.15
2023-03-16T23:41:25.403Z,26.75
2023-03-16T23:43:53.512Z,25.17
2023-03-16T23:46:22.842Z,26.35
2023-03-16T23:48:52.544Z,24.65
2023-03-16T23:51:26.632Z,25.17
2023-03-16T23:53:54.876Z,25.20
2023-03-16T23:56:22.649Z,26.27
2023-03-16T23:58:50.828Z,27.13
